createdAt,value
2017-11-10T18:37:28.530Z,18.80
2017-11-10T18:40:04.382Z,30.43
2017-11-10T18:42:31.920Z,23.80
2017-11-10T18:44:59.476Z,26.73
2017-11-10T18:47:27.777Z,33.13
2017-11-10T18:49:55.367Z,27.23
2017-11-10T18:52:22.914Z,24.13
2017-11-10T18:54:56.105Z,16.53
2017-11-10T18:57:23.648Z,17.93
2017-11-10T18:59:51.204Z,25.07
2017-11-10T19:02:18.753Z,23.37
2017-11-10T19:04:46.313Z,18.97
2017-11-10T19:07:13.857Z,13.57
2017-11-10T19:09:41.414Z,9.80
2017-11-10T19:12:08.953Z,12.23
2017-11-10T19:14:37.296Z,17.77
2017-11-10T19:17:04.837Z,24.87
2017-11-10T19:19:32.413Z,18.43
2017-11-10T19:22:00.060Z,6.17
2017-11-10T19:24:27.696Z,7.60
2017-11-10T19:26:55.280Z,9.67
2017-11-10T19:29:22.814Z,5.33
2017-11-10T19:31:50.372Z,10.50
2017-11-10T19:34:18.780Z,13.67
2017-11-10T19:36:46.337Z,9.33
2017-11-10T19:39:13.903Z,8.13
2017-11-10T19:41:41.466Z,6.93
2017-11-10T19:44:09.015Z,7.60
2017-11-10T19:46:36.576Z,5.43
2017-11-10T19:49:04.108Z,9.10
2017-11-10T19:51:32.437Z,4.90
2017-11-10T19:53:59.977Z,8.30
2017-11-10T19:56:27.549Z,9.33
2017-11-10T19:58:55.085Z,4.60
2017-11-10T20:01:22.625Z,5.67
2017-11-10T20:03:50.180Z,3.40
2017-11-10T20:06:18.490Z,6.03
2017-11-10T20:08:46.057Z,9.30
2017-11-10T20:11:13.613Z,9.00
2017-11-10T20:13:41.186Z,2.80
2017-11-10T20:16:08.730Z,7.93
2017-11-10T20:18:36.385Z,3.63
2017-11-10T20:21:03.918Z,4.67
2017-11-10T20:23:31.473Z,5.67
2017-11-10T20:25:59.885Z,5.20
2017-11-10T20:28:28.136Z,2.00
2017-11-10T20:30:55.671Z,3.30
2017-11-10T20:33:24.014Z,4.10
2017-11-10T20:35:51.551Z,5.93
2017-11-10T20:38:19.101Z,7.23
2017-11-10T20:40:46.645Z,3.27
2017-11-10T20:43:15.098Z,3.60
2017-11-10T20:45:42.676Z,5.60
2017-11-10T20:48:10.986Z,2.20
2017-11-10T20:50:38.541Z,2.83
2017-11-10T20:53:06.080Z,2.83
2017-11-10T20:55:34.409Z,2.00
2017-11-10T20:58:01.953Z,1.57
2017-11-10T21:00:29.517Z,4.87
2017-11-10T21:02:57.053Z,1.83
2017-11-10T21:05:25.004Z,2.33
2017-11-10T21:07:53.308Z,2.73
2017-11-10T21:10:20.869Z,3.07
2017-11-10T21:12:48.447Z,4.07
2017-11-10T21:15:16.005Z,3.23
2017-11-10T21:17:43.542Z,2.50
2017-11-10T21:20:11.102Z,7.07
2017-11-10T21:22:38.642Z,7.03
2017-11-10T21:25:06.201Z,1.23
2017-11-10T21:27:33.745Z,1.90
2017-11-10T21:30:02.072Z,2.50
2017-11-10T21:32:29.609Z,2.77
2017-11-10T21:34:57.148Z,2.07
2017-11-10T21:37:25.477Z,13.23
2017-11-10T21:39:53.021Z,4.30
2017-11-10T21:42:20.579Z,9.30
2017-11-10T21:44:48.125Z,4.60
2017-11-10T21:47:15.798Z,6.00
2017-11-10T21:49:43.380Z,8.10
2017-11-10T21:52:10.939Z,8.70
2017-11-10T21:54:38.488Z,6.73
2017-11-10T21:57:06.044Z,2.50
2017-11-10T21:59:33.596Z,18.57
2017-11-10T22:02:01.148Z,8.53
2017-11-10T22:04:28.714Z,7.07
2017-11-10T22:06:56.400Z,10.60
2017-11-10T22:09:24.038Z,5.23
2017-11-10T22:11:51.824Z,7.53
2017-11-10T22:14:19.353Z,5.90
2017-11-10T22:16:46.894Z,3.87
2017-11-10T22:19:14.480Z,7.43
2017-11-10T22:21:42.017Z,4.37
2017-11-10T22:24:09.594Z,4.07
2017-11-10T22:26:37.130Z,3.47
2017-11-10T22:29:04.687Z,4.27
2017-11-10T22:31:32.225Z,1.50
2017-11-10T22:33:59.789Z,6.23
2017-11-10T22:36:27.341Z,2.33
2017-11-10T22:38:55.749Z,4.60
2017-11-10T22:41:23.352Z,4.70
2017-11-10T22:43:50.970Z,5.60
2017-11-10T22:46:18.516Z,11.07
2017-11-10T22:48:46.088Z,3.97
2017-11-10T22:51:13.630Z,2.43
2017-11-10T22:53:41.192Z,4.70
2017-11-10T22:56:08.745Z,2.60
2017-11-10T22:58:36.348Z,4.70
2017-11-10T23:01:03.893Z,1.33
2017-11-10T23:03:31.469Z,6.73
2017-11-10T23:05:59.008Z,1.97
2017-11-10T23:08:26.596Z,6.50
2017-11-10T23:10:54.138Z,1.83
2017-11-10T23:13:21.697Z,4.17
2017-11-10T23:15:49.238Z,5.13
2017-11-10T23:18:16.781Z,3.90
2017-11-10T23:20:44.337Z,2.90
2017-11-10T23:23:11.873Z,2.70
2017-11-10T23:25:40.196Z,4.23
2017-11-10T23:28:07.729Z,1.47
2017-11-10T23:30:36.059Z,1.60
2017-11-10T23:33:03.592Z,3.30
2017-11-10T23:35:31.152Z,3.20
2017-11-10T23:37:58.693Z,5.93
2017-11-10T23:40:26.258Z,2.10
2017-11-10T23:42:53.798Z,34.67
2017-11-10T23:45:22.328Z,4.93
2017-11-10T23:47:49.864Z,4.60
2017-11-10T23:50:17.421Z,4.27
2017-11-10T23:52:44.960Z,13.73
2017-11-10T23:55:13.296Z,5.97
2017-11-10T23:57:40.939Z,7.00
